Time;durP1;ratioP1;P1;durP2;ratioP2;P2;SDS_P1;SDS_P2;PMS_P1;PMS_P2;Temp;Humidity;BMP_temperature;BMP_pressure;BME280_temperature;BME280_humidity;BME280_pressure;Samples;Min_cycle;Max_cycle;Signal;HPM_P1;HPM_P2
2023/04/29 00:00:58;;;;;;;;;;;16.70;42.80;;;15.62;43.20;100612.75;12253808;19;20234;-83
2023/04/29 00:05:00;;;;;;;;;;;16.60;42.70;;;15.53;43.41;100597.66;12255149;19;19932;-83
2023/04/29 00:09:03;;;;;;;;;;;16.60;42.90;;;15.58;43.24;100611.28;12253411;19;19985;-83
2023/04/29 00:13:04;;;;;;;;;;;16.70;42.80;;;15.56;43.32;100608.81;12252151;19;19911;-83
2023/04/29 00:17:06;;;;;;;;;;;16.60;42.90;;;15.57;43.33;100612.28;12251264;19;19946;-83
2023/04/29 00:21:08;;;;;;;;;;;16.60;42.90;;;15.53;43.42;100605.56;12253525;19;19935;-83
2023/04/29 00:25:10;;;;;;;;;;;16.60;42.90;;;15.55;43.38;100601.00;12252086;19;19942;-85
2023/04/29 00:29:12;;;;;;;;;;;16.60;42.70;;;15.52;43.41;100594.19;12261566;19;19955;-83
2023/04/29 00:33:13;;;;;;;;;;;16.60;42.90;;;15.20;43.39;100549.34;12265022;19;20346;-83
2023/04/29 00:37:15;;;;;;;;;;;16.60;42.80;;;15.56;43.40;100592.19;12261439;19;19926;-84
2023/04/29 00:41:16;;;;;;;;;;;16.60;42.90;;;15.45;43.60;100585.94;12262328;19;20330;-83
2023/04/29 00:45:18;;;;;;;;;;;16.60;43.10;;;15.50;43.51;100582.97;12261208;19;19930;-83
2023/04/29 00:49:20;;;;;;;;;;;16.60;43.10;;;15.44;43.50;100568.47;12262172;19;19937;-84
2023/04/29 00:53:22;;;;;;;;;;;16.60;42.90;;;15.46;43.63;100571.81;12261389;19;19914;-83
2023/04/29 00:57:27;;;;;;;;;;;16.60;43.10;;;15.40;43.65;100576.75;12260253;19;19936;-83
2023/04/29 01:01:29;;;;;;;;;;;16.50;42.90;;;15.46;43.51;100592.88;12261951;19;19974;-83
2023/04/29 01:05:30;;;;;;;;;;;16.50;42.90;;;15.41;43.94;100587.13;12262240;19;19941;-83
2023/04/29 01:09:47;;;;;;;;;;;16.50;43.00;;;15.48;43.76;100596.25;12258573;19;20259;-83
2023/04/29 01:14:04;;;;;;;;;;;16.50;43.00;;;15.47;43.72;100591.94;12259089;19;19970;-83
2023/04/29 01:18:18;;;;;;;;;;;16.50;43.00;;;15.40;43.81;100587.28;12255589;19;19914;-84
2023/04/29 01:22:20;;;;;;;;;;;16.60;43.00;;;15.36;43.78;100576.13;12260614;19;19922;-83
2023/04/29 01:26:23;;;;;;;;;;;16.50;43.00;;;15.46;43.66;100590.25;12258343;19;20374;-83
2023/04/29 01:30:48;;;;;;;;;;;16.50;42.90;;;15.48;43.67;100588.34;12258568;19;19947;-83
2023/04/29 01:35:10;;;;;;;;;;;16.60;43.00;;;15.41;43.74;100576.59;12256090;19;20526;-84
2023/04/29 01:39:50;;;;;;;;;;;16.50;43.00;;;15.44;43.75;100570.28;12251574;19;19914;-82
2023/04/29 01:43:55;;;;;;;;;;;16.50;43.30;;;15.33;43.93;100568.47;12250500;19;20226;-83
2023/04/29 01:47:59;;;;;;;;;;;16.40;43.00;;;15.31;43.81;100566.91;12252535;19;19922;-83
2023/04/29 01:52:02;;;;;;;;;;;16.50;43.20;;;15.31;43.80;100583.56;12256424;19;20281;-83
2023/04/29 01:56:06;;;;;;;;;;;16.40;43.20;;;15.22;43.96;100571.09;12252761;19;19915;-82
2023/04/29 02:00:23;;;;;;;;;;;16.30;43.20;;;15.15;43.88;100567.25;12251349;19;19925;-82
2023/04/29 02:04:27;;;;;;;;;;;16.30;43.30;;;15.20;44.06;100592.28;12256339;19;19926;-83
2023/04/29 02:08:29;;;;;;;;;;;16.30;43.40;;;15.15;44.08;100578.66;12251722;19;19919;-82
2023/04/29 02:12:31;;;;;;;;;;;16.20;43.40;;;15.18;44.07;100577.56;12253837;19;20297;-82
2023/04/29 02:16:33;;;;;;;;;;;16.20;43.30;;;15.08;44.02;100566.06;12254214;19;20313;-82
2023/04/29 02:20:38;;;;;;;;;;;16.20;43.60;;;15.08;43.97;100550.28;12249284;19;19982;-82
2023/04/29 02:28:57;;;;;;;;;;;16.10;43.80;;;14.84;44.20;100527.53;12205204;19;19959;-84
2023/04/29 02:32:59;;;;;;;;;;;16.10;44.10;;;15.02;44.25;100562.97;12252335;19;19919;-84
2023/04/29 02:37:00;;;;;;;;;;;16.10;44.60;;;14.95;44.32;100561.75;12250904;19;19915;-84
2023/04/29 02:41:01;;;;;;;;;;;16.00;44.10;;;14.98;44.31;100564.13;12250191;19;19979;-84
2023/04/29 02:45:03;;;;;;;;;;;16.00;44.00;;;14.95;44.33;100559.09;12248351;19;19974;-84
2023/04/29 02:49:06;;;;;;;;;;;16.00;44.10;;;14.89;44.31;100540.34;12247752;19;19924;-84
2023/04/29 02:53:07;;;;;;;;;;;16.00;44.00;;;14.77;44.25;100531.59;12247059;19;20251;-84
2023/04/29 02:57:09;;;;;;;;;;;16.00;44.10;;;14.88;44.41;100546.53;12247776;19;19919;-84
2023/04/29 03:01:11;;;;;;;;;;;16.00;44.10;;;14.73;44.34;100523.09;12248285;19;20324;-84
2023/04/29 03:05:13;;;;;;;;;;;16.00;44.20;;;14.87;44.31;100542.25;12249415;19;19928;-84
2023/04/29 03:09:14;;;;;;;;;;;16.00;44.30;;;14.86;44.40;100548.47;12246612;19;20356;-84
2023/04/29 03:13:19;;;;;;;;;;;15.90;44.30;;;14.83;44.59;100550.38;12248024;19;19942;-84
2023/04/29 03:17:21;;;;;;;;;;;15.90;44.50;;;14.85;44.53;100549.41;12246101;19;19942;-83
2023/04/29 03:21:26;;;;;;;;;;;15.90;44.60;;;14.79;44.53;100546.28;12248818;19;19911;-84
2023/04/29 03:25:29;;;;;;;;;;;15.90;44.90;;;14.86;44.62;100551.09;12246533;19;19922;-84
2023/04/29 03:29:31;;;;;;;;;;;15.90;44.60;;;14.85;44.69;100544.97;12247016;19;19964;-84
2023/04/29 03:33:32;;;;;;;;;;;15.90;44.60;;;14.83;44.72;100539.03;12246793;19;19922;-85
2023/04/29 03:37:34;;;;;;;;;;;15.90;44.60;;;14.75;44.64;100526.47;12245995;19;19929;-84
2023/04/29 03:41:49;;;;;;;;;;;15.90;44.60;;;14.90;44.82;100542.00;12244770;19;19922;-84
2023/04/29 03:45:51;;;;;;;;;;;16.00;48.10;;;14.86;44.64;100536.16;12241007;19;19939;-85
2023/04/29 03:49:56;;;;;;;;;;;16.00;45.40;;;14.91;44.94;100541.06;12244433;19;20340;-84
2023/04/29 03:53:58;;;;;;;;;;;15.90;45.10;;;14.89;44.95;100545.59;12244217;19;19911;-85
2023/04/29 03:58:00;;;;;;;;;;;16.00;45.40;;;14.85;45.11;100531.84;12244257;19;19922;-84
2023/04/29 04:02:02;;;;;;;;;;;16.00;45.20;;;14.87;44.95;100537.81;12246267;19;20258;-84
2023/04/29 04:06:03;;;;;;;;;;;16.00;45.10;;;14.89;44.98;100548.25;12245185;19;19919;-84
2023/04/29 04:10:05;;;;;;;;;;;16.00;45.40;;;14.86;45.00;100544.03;12245616;19;19915;-84
2023/04/29 04:14:07;;;;;;;;;;;15.90;45.50;;;14.92;45.05;100550.63;12244327;19;19949;-86
2023/04/29 04:18:09;;;;;;;;;;;16.00;45.30;;;14.87;45.13;100540.44;12244692;19;19990;-84
2023/04/29 04:22:11;;;;;;;;;;;16.00;45.00;;;14.71;45.16;100521.53;12242927;19;20243;-85
2023/04/29 04:26:17;;;;;;;;;;;16.00;45.00;;;14.82;45.04;100538.19;12242709;19;19917;-85
2023/04/29 04:30:34;;;;;;;;;;;16.00;45.00;;;14.85;45.14;100538.91;12244172;19;19915;-84
2023/04/29 04:34:38;;;;;;;;;;;16.00;45.20;;;14.81;45.11;100530.41;12244654;19;19915;-84
2023/04/29 04:38:40;;;;;;;;;;;16.00;45.20;;;14.86;45.18;100540.59;12243162;19;19920;-85
2023/04/29 04:42:45;;;;;;;;;;;16.00;45.10;;;14.87;45.39;100542.25;12247923;19;19914;-84
2023/04/29 04:46:51;;;;;;;;;;;16.00;45.10;;;14.78;45.29;100530.66;12243837;19;19970;-84
2023/04/29 04:51:11;;;;;;;;;;;16.00;45.40;;;15.00;45.39;100564.84;12245272;19;19925;-84
2023/04/29 04:55:13;;;;;;;;;;;16.10;45.30;;;15.03;45.46;100562.00;12246468;19;19952;-84
2023/04/29 04:59:18;;;;;;;;;;;16.10;45.40;;;15.06;45.46;100568.81;12241650;19;19925;-83
2023/04/29 05:03:20;;;;;;;;;;;16.10;45.30;;;15.05;45.54;100569.78;12247212;19;19917;-85
2023/04/29 05:07:22;;;;;;;;;;;16.10;45.30;;;15.06;45.57;100566.19;12243961;19;20266;-84
2023/04/29 05:11:37;;;;;;;;;;;16.20;45.50;;;15.10;45.63;100567.63;12247036;19;19939;-85
2023/04/29 05:15:46;;;;;;;;;;;16.20;45.50;;;14.83;45.51;100525.88;12257104;19;19935;-85
2023/04/29 05:19:52;;;;;;;;;;;16.20;45.70;;;14.96;45.55;100547.66;12252440;19;19911;-85
2023/04/29 05:23:54;;;;;;;;;;;16.20;45.70;;;15.14;45.55;100570.84;12254595;19;19936;-84
2023/04/29 05:27:56;;;;;;;;;;;16.20;45.60;;;15.04;45.73;100561.06;12250754;19;20270;-84
2023/04/29 05:32:00;;;;;;;;;;;16.20;45.70;;;15.11;45.70;100563.22;12254645;19;19918;-84
2023/04/29 05:36:01;;;;;;;;;;;16.20;45.70;;;15.15;45.86;100575.16;12256289;19;19979;-86
2023/04/29 05:40:03;;;;;;;;;;;16.30;45.90;;;15.18;45.51;100577.56;12248766;19;20324;-84
2023/04/29 05:44:07;;;;;;;;;;;16.30;45.90;;;15.21;45.75;100580.78;12256974;19;19922;-84
2023/04/29 05:48:08;;;;;;;;;;;16.30;45.70;;;14.88;45.76;100523.75;12249646;19;20006;-84
2023/04/29 05:52:10;;;;;;;;;;;16.30;45.80;;;15.20;45.98;100579.13;12256257;19;19926;-88
2023/04/29 05:56:18;;;;;;;;;;;16.30;45.90;;;15.22;45.91;100579.81;12254498;19;19911;-89
2023/04/29 06:00:20;;;;;;;;;;;16.30;45.90;;;15.17;46.06;100568.81;12250365;19;19926;-87
2023/04/29 06:04:24;;;;;;;;;;;16.30;46.00;;;15.09;45.83;100557.22;12247647;19;19923;-87
2023/04/29 06:08:55;;;;;;;;;;;16.30;46.00;;;15.31;46.02;100596.72;12244018;19;19931;-89
2023/04/29 06:13:01;;;;;;;;;;;16.40;46.20;;;15.32;45.94;100592.28;12252803;19;19943;-88
2023/04/29 06:17:03;;;;;;;;;;;16.40;46.10;;;15.32;45.86;100602.81;12250596;19;19922;-88
2023/04/29 06:21:05;;;;;;;;;;;16.40;46.10;;;15.31;46.15;100593.22;12252755;19;19922;-89
2023/04/29 06:25:07;;;;;;;;;;;16.40;46.20;;;15.31;46.11;100588.81;12248002;19;19918;-89
2023/04/29 06:29:20;;;;;;;;;;;16.50;46.40;;;15.35;46.28;100600.78;12249737;19;19922;-88
2023/04/29 06:33:22;;;;;;;;;;;16.50;46.30;;;15.40;46.19;100611.78;12252764;19;19911;-87
2023/04/29 06:37:24;;;;;;;;;;;16.50;46.40;;;15.40;46.32;100618.84;12251357;19;19911;-88
2023/04/29 06:41:42;;;;;;;;;;;16.50;46.40;;;15.38;46.28;100613.69;12251537;19;19998;-88
2023/04/29 06:46:07;;;;;;;;;;;16.50;46.50;;;15.34;46.25;100603.50;12248802;19;19939;-88
2023/04/29 06:50:19;;;;;;;;;;;16.50;46.50;;;15.43;46.55;100610.72;12251785;19;19935;-88
2023/04/29 06:54:20;;;;;;;;;;;16.50;46.50;;;15.27;46.32;100600.53;12250061;19;20253;-89
2023/04/29 06:58:24;;;;;;;;;;;16.60;46.50;;;15.51;46.50;100624.13;12248679;19;19953;-89
2023/04/29 07:02:26;;;;;;;;;;;16.60;46.50;;;15.43;46.25;100608.91;12247865;19;20392;-88
2023/04/29 07:06:28;;;;;;;;;;;16.60;46.70;;;15.51;46.48;100616.22;12242576;19;20621;-88
2023/04/29 07:10:29;;;;;;;;;;;16.60;46.70;;;15.52;46.60;100614.41;12248989;19;19922;-88
2023/04/29 07:14:31;;;;;;;;;;;16.70;46.70;;;15.52;46.52;100617.06;12246710;19;19911;-88
2023/04/29 07:18:32;;;;;;;;;;;16.70;46.70;;;15.63;46.56;100638.09;12246988;19;20326;-88
2023/04/29 07:22:33;;;;;;;;;;;16.70;46.70;;;15.59;46.50;100624.34;12248314;19;19930;-88
2023/04/29 07:26:35;;;;;;;;;;;16.70;46.90;;;15.46;46.68;100605.22;12248340;19;19936;-88
2023/04/29 07:30:36;;;;;;;;;;;16.70;46.80;;;15.66;46.68;100638.72;12248282;19;19918;-89
2023/04/29 07:34:39;;;;;;;;;;;16.80;46.90;;;15.69;46.74;100646.41;12247518;19;19927;-89
2023/04/29 07:38:40;;;;;;;;;;;16.80;46.90;;;15.54;46.68;100617.78;12244167;19;19919;-89
2023/04/29 07:42:41;;;;;;;;;;;16.80;47.00;;;15.49;46.74;100613.69;12250083;19;19942;-89
2023/04/29 07:46:43;;;;;;;;;;;16.80;46.90;;;15.64;46.82;100640.63;12243384;19;20269;-89
2023/04/29 07:50:44;;;;;;;;;;;16.80;47.00;;;15.64;46.83;100648.53;12249303;19;19918;-88
2023/04/29 07:54:46;;;;;;;;;;;16.80;47.10;;;15.76;46.92;100667.81;12248190;19;20355;-88
2023/04/29 07:58:47;;;;;;;;;;;16.80;47.00;;;15.75;46.83;100660.88;12243642;19;19931;-89
2023/04/29 08:02:54;;;;;;;;;;;16.90;47.10;;;15.76;46.92;100672.25;12247086;19;19955;-89
2023/04/29 08:06:57;;;;;;;;;;;16.90;47.20;;;15.62;47.01;100644.34;12246461;19;19918;-88
2023/04/29 08:10:58;;;;;;;;;;;16.90;47.20;;;15.81;46.94;100684.09;12247559;19;19919;-89
2023/04/29 08:14:59;;;;;;;;;;;16.90;47.20;;;15.78;46.94;100686.16;12247259;19;19931;-88
2023/04/29 08:19:01;;;;;;;;;;;16.90;47.10;;;15.81;47.16;100693.81;12243328;19;20266;-89
2023/04/29 08:23:03;;;;;;;;;;;16.90;47.20;;;15.62;47.09;100676.75;12246462;19;19926;-90
2023/04/29 08:27:05;;;;;;;;;;;16.90;47.00;;;15.77;47.08;100709.00;12245817;19;19930;-88
2023/04/29 08:31:06;;;;;;;;;;;16.90;47.00;;;15.76;47.03;100723.13;12245890;19;19915;-88
2023/04/29 08:35:08;;;;;;;;;;;16.90;47.10;;;15.55;47.12;100695.75;12246158;19;19919;-88
2023/04/29 08:39:09;;;;;;;;;;;16.90;47.20;;;15.54;47.15;100700.19;12242036;19;19936;-87
2023/04/29 08:43:15;;;;;;;;;;;16.80;47.20;;;15.65;47.11;100738.88;12246980;19;19919;-89
2023/04/29 08:47:17;;;;;;;;;;;16.80;47.30;;;15.60;47.03;100746.28;12244424;19;20338;-89
2023/04/29 08:51:23;;;;;;;;;;;16.80;47.30;;;15.58;47.13;100749.03;12252285;19;21347;-88
2023/04/29 08:55:25;;;;;;;;;;;16.70;47.40;;;15.58;47.10;100758.69;12258028;19;19930;-88
2023/04/29 08:59:27;;;;;;;;;;;16.70;47.20;;;15.50;47.30;100761.94;12253261;19;19906;-88
2023/04/29 09:03:35;;;;;;;;;;;16.70;47.60;;;15.48;47.50;100779.63;12255239;19;19922;-88
2023/04/29 09:07:41;;;;;;;;;;;16.60;47.30;;;15.44;47.26;100788.69;12252157;19;19919;-88
2023/04/29 09:11:42;;;;;;;;;;;16.60;47.40;;;15.32;47.33;100784.38;12256637;19;19974;-88
2023/04/29 09:15:45;;;;;;;;;;;16.50;47.50;;;15.31;47.46;100787.94;12254977;19;19919;-88
2023/04/29 09:19:46;;;;;;;;;;;16.40;47.50;;;15.14;47.44;100776.03;12253653;19;19926;-88
2023/04/29 09:23:50;;;;;;;;;;;16.40;47.80;;;15.24;47.46;100800.72;12255253;19;19915;-88
2023/04/29 09:27:53;;;;;;;;;;;16.40;47.90;;;15.22;47.49;100802.59;12251781;19;19914;-88
2023/04/29 09:31:57;;;;;;;;;;;16.40;47.70;;;15.27;47.36;100830.25;12257469;19;20247;-88
2023/04/29 09:35:59;;;;;;;;;;;16.30;48.10;;;15.02;47.41;100793.56;12256966;19;19930;-89
2023/04/29 09:40:01;;;;;;;;;;;16.30;47.90;;;15.30;47.53;100838.88;12252218;19;19941;-87
2023/04/29 09:44:04;;;;;;;;;;;16.30;47.80;;;15.25;47.58;100852.38;12254934;19;19970;-88
2023/04/29 09:48:07;;;;;;;;;;;16.30;47.80;;;15.02;47.57;100820.69;12254195;19;19934;-87
2023/04/29 09:52:15;;;;;;;;;;;16.30;47.60;;;15.14;47.68;100857.56;12256039;19;19919;-88
2023/04/29 09:56:16;;;;;;;;;;;16.30;47.90;;;15.14;47.55;100871.56;12256151;19;19911;-88
2023/04/29 10:00:18;;;;;;;;;;;16.30;47.90;;;15.03;47.69;100867.06;12252038;19;19919;-88
2023/04/29 10:04:20;;;;;;;;;;;16.20;47.90;;;15.09;47.61;100886.00;12253183;19;19923;-88
2023/04/29 10:08:22;;;;;;;;;;;16.20;47.90;;;14.82;47.79;100850.19;12250445;19;19942;-88
2023/04/29 10:12:25;;;;;;;;;;;16.10;47.90;;;14.96;47.69;100889.50;12253911;19;19935;-88
2023/04/29 10:16:28;;;;;;;;;;;16.10;47.90;;;14.93;47.82;100891.50;12251809;19;20329;-88
2023/04/29 10:20:30;;;;;;;;;;;16.10;48.10;;;14.98;47.72;100913.88;12249949;19;20324;-88
2023/04/29 10:24:33;;;;;;;;;;;16.00;47.70;;;14.97;47.74;100917.47;12252946;19;19917;-88
2023/04/29 10:28:36;;;;;;;;;;;16.00;48.10;;;14.81;47.69;100901.94;12248545;19;19910;-88
2023/04/29 10:32:40;;;;;;;;;;;16.00;47.70;;;14.90;47.71;100918.84;12253301;19;19922;-88
2023/04/29 10:36:43;;;;;;;;;;;16.00;47.60;;;14.80;47.74;100921.31;12252764;19;19923;-88
2023/04/29 10:40:45;;;;;;;;;;;15.90;47.90;;;14.82;48.08;100923.81;12251175;19;20233;-88
2023/04/29 10:45:17;;;;;;;;;;;16.00;48.20;;;14.88;47.92;100954.94;12251892;19;19952;-90
2023/04/29 10:49:20;;;;;;;;;;;15.90;47.80;;;14.82;47.91;100942.22;12249614;19;20272;-90
2023/04/29 10:53:22;;;;;;;;;;;15.90;47.80;;;14.80;47.82;100941.50;12252759;19;19918;-90
2023/04/29 10:57:24;;;;;;;;;;;15.90;47.80;;;14.71;47.96;100927.19;12258493;19;19936;-90
2023/04/29 11:01:41;;;;;;;;;;;15.90;48.20;;;14.53;47.92;100908.28;12250445;19;19933;-89
2023/04/29 11:05:44;;;;;;;;;;;15.90;48.10;;;14.69;48.07;100936.13;12254413;19;19935;-89
2023/04/29 11:09:49;;;;;;;;;;;15.90;48.20;;;14.81;47.99;100958.94;12248690;19;19923;-90
2023/04/29 11:13:51;;;;;;;;;;;15.90;48.00;;;14.85;48.06;100978.81;12251408;19;20257;-89
2023/04/29 11:17:57;;;;;;;;;;;15.90;47.90;;;14.77;48.04;100952.19;12250777;19;20513;-89
2023/04/29 11:22:17;;;;;;;;;;;15.90;48.00;;;14.92;48.14;100985.34;12253536;19;20265;-90
2023/04/29 11:26:18;;;;;;;;;;;15.90;48.10;;;14.77;48.15;100960.09;12255024;19;20395;-89
2023/04/29 11:30:20;;;;;;;;;;;15.90;48.20;;;14.74;48.18;100958.53;12252852;19;19946;-89
2023/04/29 11:34:24;;;;;;;;;;;16.00;47.90;;;14.70;48.29;100957.06;12254546;19;19925;-89
2023/04/29 11:38:26;;;;;;;;;;;16.00;48.10;;;14.90;48.11;101000.38;12249313;19;19945;-90
2023/04/29 11:42:28;;;;;;;;;;;15.90;48.20;;;14.95;48.23;100998.25;12251285;19;20268;-90
2023/04/29 11:46:30;;;;;;;;;;;16.00;48.20;;;14.96;48.24;101001.72;12251311;19;19915;-90
2023/04/29 11:50:32;;;;;;;;;;;16.00;48.10;;;14.96;48.25;100999.97;12253712;19;20348;-90
2023/04/29 11:54:34;;;;;;;;;;;16.10;48.20;;;15.01;48.37;101003.13;12249509;19;19939;-89
2023/04/29 11:58:36;;;;;;;;;;;16.10;48.30;;;15.03;48.46;101003.84;12249808;19;19914;-89
2023/04/29 12:02:37;;;;;;;;;;;16.10;48.20;;;15.16;48.38;101021.41;12250325;19;20319;-89
2023/04/29 12:06:40;;;;;;;;;;;16.20;48.10;;;15.19;48.47;101026.44;12252942;19;19914;-89
2023/04/29 12:10:42;;;;;;;;;;;16.30;48.20;;;15.01;48.37;100994.38;12250716;19;20281;-89
2023/04/29 12:14:43;;;;;;;;;;;16.30;48.10;;;15.12;48.36;101009.41;12248156;19;20366;-90
2023/04/29 12:18:45;;;;;;;;;;;16.30;48.50;;;15.12;48.36;100988.34;12245181;19;20436;-88
2023/04/29 12:22:47;;;;;;;;;;;16.40;48.90;;;15.40;48.47;101024.09;12251234;19;19927;-89
2023/04/29 12:26:49;;;;;;;;;;;16.50;48.70;;;15.42;48.56;101017.78;12262331;19;20268;-88
2023/04/29 12:30:52;;;;;;;;;;;16.60;49.00;;;15.47;48.67;101009.53;12263710;19;20348;-89
2023/04/29 12:34:54;;;;;;;;;;;16.70;49.20;;;15.64;48.62;101017.09;12264253;19;19927;-89
2023/04/29 12:38:57;;;;;;;;;;;16.60;49.00;;;15.69;48.65;101024.69;12259074;19;19932;-89
2023/04/29 12:43:06;;;;;;;;;;;16.90;48.60;;;15.80;48.46;101037.09;12263326;19;19978;-89
2023/04/29 12:47:12;;;;;;;;;;;16.90;48.30;;;15.72;48.57;101037.63;12263942;19;20635;-88
2023/04/29 12:51:13;;;;;;;;;;;17.00;48.10;;;15.78;48.63;101039.00;12265394;19;20269;-88
2023/04/29 12:55:15;;;;;;;;;;;17.00;48.00;;;15.66;48.51;101016.97;12262106;19;19918;-89
2023/04/29 12:59:16;;;;;;;;;;;17.00;48.40;;;15.80;48.70;101031.81;12256383;19;19915;-89
2023/04/29 13:03:18;;;;;;;;;;;17.00;48.00;;;15.74;48.64;101027.81;12261138;19;19922;-89
2023/04/29 13:07:19;;;;;;;;;;;17.00;48.10;;;15.81;48.50;101039.59;12258721;19;19922;-89
2023/04/29 13:11:21;;;;;;;;;;;17.10;48.10;;;15.82;48.76;101040.44;12259254;19;19923;-88
2023/04/29 13:15:22;;;;;;;;;;;17.10;48.30;;;15.92;48.68;101068.63;12259424;19;19923;-88
2023/04/29 13:19:24;;;;;;;;;;;17.10;48.10;;;15.72;48.61;101034.16;12257150;19;20267;-89
2023/04/29 13:23:26;;;;;;;;;;;17.10;47.80;;;15.80;48.59;101053.72;12260078;19;19919;-89
2023/04/29 13:27:27;;;;;;;;;;;17.10;47.90;;;15.96;48.77;101069.28;12259363;19;19919;-89
2023/04/29 13:31:29;;;;;;;;;;;17.10;48.00;;;15.98;48.74;101061.25;12259059;19;19922;-89
2023/04/29 13:35:31;;;;;;;;;;;17.20;48.50;;;16.05;48.83;101070.38;12257490;19;19977;-89
2023/04/29 13:39:33;;;;;;;;;;;17.30;48.10;;;16.11;48.48;101072.56;12252720;19;20261;-89
2023/04/29 13:43:34;;;;;;;;;;;17.30;48.30;;;16.17;48.60;101072.13;12260269;19;19915;-89
2023/04/29 13:47:36;;;;;;;;;;;17.40;48.00;;;16.19;48.73;101072.00;12257099;19;19911;-89
2023/04/29 13:51:37;;;;;;;;;;;17.40;48.60;;;16.35;48.72;101083.94;12260274;19;19922;-88
2023/04/29 13:55:39;;;;;;;;;;;17.50;48.20;;;16.41;48.73;101098.47;12263414;19;20257;-89
2023/04/29 13:59:40;;;;;;;;;;;17.50;48.10;;;16.45;48.71;101091.19;12256615;19;19922;-88
2023/04/29 14:03:43;;;;;;;;;;;17.60;48.00;;;16.40;48.78;101067.78;12262589;19;19915;-89
2023/04/29 14:07:44;;;;;;;;;;;17.70;47.90;;;16.58;48.98;101097.22;12259664;19;19971;-89
2023/04/29 14:11:47;;;;;;;;;;;17.80;47.80;;;16.59;48.70;101091.81;12261762;19;19927;-89
2023/04/29 14:15:48;;;;;;;;;;;17.80;47.80;;;16.47;48.85;101066.41;12259612;19;19946;-88
2023/04/29 14:19:49;;;;;;;;;;;17.90;47.80;;;16.62;48.62;101085.50;12251357;19;19919;-88
2023/04/29 14:23:51;;;;;;;;;;;17.90;47.80;;;16.75;48.91;101099.44;12252035;19;19919;-89
2023/04/29 14:27:52;;;;;;;;;;;17.90;47.90;;;16.83;48.90;101116.53;12251699;19;19918;-89
2023/04/29 14:31:54;;;;;;;;;;;18.00;47.60;;;16.76;48.66;101100.28;12254829;19;19978;-88
2023/04/29 14:35:56;;;;;;;;;;;18.00;47.60;;;16.87;48.66;101112.69;12253937;19;19922;-88
2023/04/29 14:39:57;;;;;;;;;;;18.10;47.90;;;16.93;48.70;101122.75;12246216;19;19918;-89
2023/04/29 14:43:59;;;;;;;;;;;18.10;47.30;;;16.96;48.80;101119.91;12254021;19;19953;-84
2023/04/29 14:48:01;;;;;;;;;;;18.20;47.30;;;16.98;48.79;101121.47;12246937;19;20336;-84
2023/04/29 14:52:03;;;;;;;;;;;18.20;47.40;;;17.01;48.76;101126.53;12253247;19;19933;-84
2023/04/29 14:56:06;;;;;;;;;;;18.20;47.20;;;16.89;48.68;101106.34;12252719;19;19922;-84
2023/04/29 15:00:10;;;;;;;;;;;18.20;47.00;;;17.06;48.55;101139.34;12248565;19;20420;-84
2023/04/29 15:04:12;;;;;;;;;;;18.20;47.20;;;17.09;48.50;101138.28;12251486;19;19926;-84
2023/04/29 15:08:15;;;;;;;;;;;18.30;47.00;;;17.04;48.70;101133.38;12247954;19;19926;-84
2023/04/29 15:12:18;;;;;;;;;;;18.30;47.00;;;17.14;48.56;101142.25;12250824;19;20380;-85
2023/04/29 15:16:20;;;;;;;;;;;18.30;46.90;;;17.14;48.68;101147.53;12251346;19;19990;-84
2023/04/29 15:20:21;;;;;;;;;;;18.30;46.90;;;17.14;48.69;101141.41;12247349;19;19933;-85
2023/04/29 15:24:23;;;;;;;;;;;18.30;46.70;;;17.18;48.66;101149.00;12252223;19;19983;-84
2023/04/29 15:28:24;;;;;;;;;;;18.30;46.80;;;17.19;48.74;101142.75;12249215;19;19915;-85
2023/04/29 15:32:30;;;;;;;;;;;18.30;46.90;;;17.28;48.47;101143.00;12252354;19;19975;-86
2023/04/29 15:36:33;;;;;;;;;;;18.40;46.80;;;17.30;48.49;101160.41;12246519;19;20336;-85
2023/04/29 15:40:34;;;;;;;;;;;18.50;46.60;;;17.29;48.52;101149.97;12247392;19;19919;-85
2023/04/29 15:44:35;;;;;;;;;;;18.50;46.70;;;17.24;48.55;101150.31;12249501;19;19926;-84
2023/04/29 15:48:37;;;;;;;;;;;18.50;46.70;;;17.37;48.55;101164.25;12245605;19;19919;-85
2023/04/29 15:52:38;;;;;;;;;;;18.50;46.60;;;17.36;48.42;101172.28;12248624;19;19914;-84
2023/04/29 15:56:40;;;;;;;;;;;18.50;46.40;;;17.27;48.40;101157.16;12246204;19;19922;-84
2023/04/29 16:00:41;;;;;;;;;;;18.50;46.40;;;17.35;48.34;101186.44;12246634;19;19975;-84
2023/04/29 16:04:42;;;;;;;;;;;18.50;46.40;;;17.36;48.25;101188.13;12248429;19;19926;-85
2023/04/29 16:08:45;;;;;;;;;;;18.50;46.40;;;17.35;48.36;101192.56;12246178;19;19998;-84
2023/04/29 16:12:47;;;;;;;;;;;18.50;46.30;;;17.17;48.50;101157.00;12248149;19;19923;-85
2023/04/29 16:16:49;;;;;;;;;;;18.50;46.30;;;17.37;48.36;101201.22;12245620;19;19922;-85
2023/04/29 16:20:51;;;;;;;;;;;18.50;46.30;;;17.32;48.35;101194.59;12244906;19;19914;-85
2023/04/29 16:24:53;;;;;;;;;;;18.50;46.30;;;17.30;48.20;101188.59;12245145;19;19911;-84
2023/04/29 16:28:54;;;;;;;;;;;18.50;46.30;;;17.39;48.15;101206.38;12246340;19;19915;-84
2023/04/29 16:32:56;;;;;;;;;;;18.50;46.30;;;17.38;48.08;101213.44;12247630;19;19926;-85
2023/04/29 16:36:57;;;;;;;;;;;18.50;46.30;;;17.36;48.39;101212.75;12245444;19;19923;-84
2023/04/29 16:40:58;;;;;;;;;;;18.50;46.20;;;17.21;48.12;101183.06;12245331;19;19935;-85
2023/04/29 16:45:00;;;;;;;;;;;18.50;46.20;;;17.34;48.27;101208.53;12248294;19;19999;-85
2023/04/29 16:49:01;;;;;;;;;;;18.50;46.20;;;17.15;48.32;101183.53;12245209;19;19911;-85
2023/04/29 16:53:03;;;;;;;;;;;18.50;46.20;;;17.28;48.20;101207.19;12244272;19;19918;-84
2023/04/29 16:57:05;;;;;;;;;;;18.50;46.10;;;17.30;48.19;101218.47;12244707;19;19978;-85
2023/04/29 17:01:06;;;;;;;;;;;18.50;46.10;;;17.09;48.09;101189.25;12243444;19;19934;-84
2023/04/29 17:05:08;;;;;;;;;;;18.50;46.20;;;17.35;48.31;101231.34;12247008;19;20321;-84
2023/04/29 17:09:10;;;;;;;;;;;18.50;46.20;;;17.34;47.95;101237.59;12243821;19;20352;-85
2023/04/29 17:13:11;;;;;;;;;;;18.40;46.10;;;17.27;48.20;101223.97;12256339;19;19921;-86
2023/04/29 17:17:13;;;;;;;;;;;18.50;46.20;;;17.30;48.08;101230.84;12254573;19;19915;-84
2023/04/29 17:21:14;;;;;;;;;;;18.50;46.20;;;17.39;48.12;101248.59;12253107;19;19982;-85
2023/04/29 17:25:15;;;;;;;;;;;18.50;46.20;;;17.32;48.04;101240.31;12257594;19;19917;-85
2023/04/29 17:29:17;;;;;;;;;;;18.50;46.10;;;17.41;48.22;101257.25;12252456;19;19927;-85
2023/04/29 17:33:18;;;;;;;;;;;18.50;46.20;;;17.33;48.06;101249.06;12256408;19;19915;-84
2023/04/29 17:37:23;;;;;;;;;;;18.50;46.10;;;17.22;48.16;101236.69;12254615;19;19937;-84
2023/04/29 17:41:25;;;;;;;;;;;18.50;46.10;;;17.24;48.09;101232.13;12253879;19;19918;-85
2023/04/29 17:45:26;;;;;;;;;;;18.50;46.10;;;17.39;48.12;101257.41;12255601;19;20356;-85
2023/04/29 17:49:28;;;;;;;;;;;18.50;46.10;;;17.39;48.04;101273.25;12251551;19;19911;-85
2023/04/29 17:53:31;;;;;;;;;;;18.50;46.10;;;17.29;48.02;101260.84;12246572;19;20306;-85
2023/04/29 17:57:33;;;;;;;;;;;18.60;46.10;;;17.37;48.11;101275.13;12253882;19;20285;-84
2023/04/29 18:01:36;;;;;;;;;;;18.50;46.10;;;17.20;48.22;101257.94;12249023;19;19958;-85
2023/04/29 18:05:37;;;;;;;;;;;18.50;46.10;;;17.32;48.13;101287.84;12255483;19;20124;-85
2023/04/29 18:09:39;;;;;;;;;;;18.50;46.20;;;17.19;48.17;101287.91;12249642;19;19914;-85
2023/04/29 18:13:41;;;;;;;;;;;18.40;46.10;;;17.17;48.10;101291.59;12254194;19;19924;-85
2023/04/29 18:17:43;;;;;;;;;;;18.30;46.10;;;16.90;48.06;101262.81;12252031;19;19946;-85